createdAt,value
2023-05-02T00:02:44.396Z,5.20
2023-05-02T00:05:36.527Z,5.20
2023-05-02T00:08:26.181Z,5.20
2023-05-02T00:11:18.071Z,5.20
2023-05-02T00:14:07.967Z,5.20
2023-05-02T00:16:57.746Z,5.20
2023-05-02T00:19:47.290Z,5.20
2023-05-02T00:22:38.265Z,5.20
2023-05-02T00:25:27.905Z,5.20
2023-05-02T00:28:18.008Z,5.30
2023-05-02T00:31:08.703Z,5.30
2023-05-02T00:33:58.857Z,5.20
2023-05-02T00:36:49.841Z,5.30
2023-05-02T00:39:41.268Z,5.20
2023-05-02T00:42:56.663Z,5.20
2023-05-02T00:45:53.077Z,5.20
2023-05-02T00:48:44.488Z,5.20
2023-05-02T00:51:37.839Z,5.10
2023-05-02T00:54:27.504Z,5.10
2023-05-02T00:57:19.364Z,5.00
2023-05-02T01:00:11.115Z,5.00
2023-05-02T01:03:07.864Z,5.10
2023-05-02T01:06:09.314Z,5.10
2023-05-02T01:09:07.957Z,5.20
2023-05-02T01:12:05.339Z,5.20
2023-05-02T01:14:57.844Z,5.30
2023-05-02T01:17:49.057Z,5.30
2023-05-02T01:20:42.261Z,5.30
2023-05-02T01:23:40.781Z,5.40
2023-05-02T01:26:38.413Z,5.50
2023-05-02T01:29:31.697Z,5.50
2023-05-02T01:32:25.598Z,5.50
2023-05-02T01:35:20.007Z,5.50
2023-05-02T01:38:10.215Z,5.50
2023-05-02T01:41:04.079Z,5.50
2023-05-02T01:43:54.269Z,5.50
2023-05-02T01:46:46.748Z,5.50
2023-05-02T01:49:37.695Z,5.50
2023-05-02T01:52:28.984Z,5.50
2023-05-02T01:55:19.635Z,5.50
2023-05-02T01:58:10.056Z,5.40
2023-05-02T02:01:01.763Z,5.40
2023-05-02T02:03:53.227Z,5.40
2023-05-02T02:06:46.345Z,5.40
2023-05-02T02:09:36.352Z,5.50
2023-05-02T02:12:30.819Z,5.40
2023-05-02T02:15:29.420Z,5.40
2023-05-02T02:18:23.687Z,5.40
2023-05-02T02:21:20.954Z,5.40
2023-05-02T02:24:11.750Z,5.40
2023-05-02T02:27:01.713Z,5.40
2023-05-02T02:29:51.401Z,5.40
2023-05-02T02:32:41.556Z,5.40
2023-05-02T02:35:37.732Z,5.40
2023-05-02T02:38:37.864Z,5.50
2023-05-02T02:41:32.907Z,5.50
2023-05-02T02:44:46.546Z,5.70
2023-05-02T02:47:47.078Z,5.70
2023-05-02T02:50:48.789Z,5.70
2023-05-02T02:53:53.975Z,5.70
2023-05-02T02:56:48.038Z,5.90
2023-05-02T02:59:43.296Z,6.00
2023-05-02T03:02:35.442Z,6.00
2023-05-02T03:05:25.464Z,6.00
2023-05-02T03:08:15.435Z,6.10
2023-05-02T03:11:06.323Z,6.20
2023-05-02T03:13:55.780Z,6.30
2023-05-02T03:16:45.629Z,6.50
2023-05-02T03:19:35.420Z,6.50
2023-05-02T03:22:25.055Z,6.60
2023-05-02T03:25:14.614Z,6.70
2023-05-02T03:28:05.681Z,6.80
2023-05-02T03:30:55.846Z,6.80
2023-05-02T03:33:45.289Z,6.90
2023-05-02T03:36:34.939Z,6.90
2023-05-02T03:39:37.460Z,7.00
2023-05-02T03:42:27.069Z,7.10
2023-05-02T03:45:19.197Z,7.10
2023-05-02T03:48:08.990Z,7.20
2023-05-02T03:50:59.258Z,7.20
2023-05-02T03:53:49.947Z,7.40
2023-05-02T03:56:42.663Z,7.40
2023-05-02T03:59:42.184Z,7.40
2023-05-02T04:02:39.850Z,7.60
2023-05-02T04:05:32.402Z,7.70
2023-05-02T04:08:21.908Z,7.80
2023-05-02T04:11:15.180Z,7.90
2023-05-02T04:14:04.780Z,8.00
2023-05-02T04:16:54.950Z,8.20
2023-05-02T04:19:48.019Z,8.30
2023-05-02T04:22:41.935Z,8.40
2023-05-02T04:25:31.938Z,8.50
2023-05-02T04:28:22.988Z,8.60
2023-05-02T04:31:13.903Z,8.70
2023-05-02T04:34:05.183Z,8.80
2023-05-02T04:36:56.334Z,8.90
2023-05-02T04:39:46.101Z,8.90
2023-05-02T04:42:39.247Z,8.90
2023-05-02T04:45:36.222Z,8.90
2023-05-02T04:48:26.016Z,9.10
2023-05-02T04:51:17.058Z,9.10
2023-05-02T04:54:09.511Z,9.20
2023-05-02T04:56:59.881Z,9.30
2023-05-02T04:59:51.618Z,9.40
2023-05-02T05:02:41.204Z,9.50
2023-05-02T05:05:30.898Z,9.60
2023-05-02T05:08:20.621Z,9.80
2023-05-02T05:11:14.968Z,9.80
2023-05-02T05:14:04.866Z,9.90
2023-05-02T05:16:54.620Z,10.10
2023-05-02T05:19:44.616Z,10.10
2023-05-02T05:22:33.936Z,10.30
2023-05-02T05:25:23.821Z,10.40
2023-05-02T05:28:16.032Z,10.60
2023-05-02T05:31:08.684Z,10.70
2023-05-02T05:33:58.576Z,11.00
2023-05-02T05:36:48.570Z,11.20
2023-05-02T05:39:38.408Z,11.40
2023-05-02T05:42:27.959Z,11.60
2023-05-02T05:45:20.065Z,12.00
2023-05-02T05:48:13.344Z,12.20
2023-05-02T05:55:49.758Z,12.40
2023-05-02T05:58:40.021Z,12.40
2023-05-02T06:01:32.494Z,12.50
2023-05-02T06:04:22.625Z,12.60
2023-05-02T06:07:12.418Z,12.40
2023-05-02T06:10:02.426Z,12.50
2023-05-02T06:12:52.678Z,12.30
2023-05-02T06:15:42.334Z,12.40
2023-05-02T06:18:34.256Z,12.40
2023-05-02T06:21:23.818Z,12.40
2023-05-02T06:24:13.330Z,12.40
2023-05-02T06:27:02.861Z,12.40
2023-05-02T06:30:22.710Z,12.30
2023-05-02T06:33:12.816Z,12.30
2023-05-02T06:36:10.889Z,12.40
2023-05-02T06:39:03.417Z,12.40
2023-05-02T06:41:53.931Z,12.30
2023-05-02T06:44:43.879Z,12.40
2023-05-02T06:48:46.105Z,12.40
2023-05-02T06:50:58.384Z,12.50
2023-05-02T06:53:50.119Z,13.00
2023-05-02T06:56:53.299Z,13.50
2023-05-02T06:59:45.957Z,13.90
2023-05-02T07:02:53.548Z,14.40
2023-05-02T07:06:20.122Z,14.80
2023-05-02T07:09:15.686Z,15.10
2023-05-02T07:12:06.947Z,15.50
2023-05-02T07:15:02.333Z,16.20
2023-05-02T07:18:13.686Z,16.60
2023-05-02T07:21:04.792Z,16.80
2023-05-02T07:23:56.335Z,16.70
2023-05-02T07:26:52.674Z,17.00
2023-05-02T07:33:57.748Z,17.50
2023-05-02T07:37:22.162Z,17.60
2023-05-02T07:40:39.229Z,17.30
2023-05-02T07:43:32.232Z,17.40
2023-05-02T07:46:22.209Z,17.10
2023-05-02T07:49:12.577Z,17.10
2023-05-02T07:53:36.895Z,17.30
2023-05-02T07:56:46.305Z,17.50
2023-05-02T08:00:00.816Z,17.60
2023-05-02T08:03:59.543Z,17.50
2023-05-02T08:07:24.595Z,17.50
2023-05-02T08:14:36.840Z,18.10
2023-05-02T08:17:35.555Z,18.10
2023-05-02T08:20:45.547Z,18.50
2023-05-02T08:28:31.696Z,19.20
2023-05-02T08:37:03.649Z,20.50
2023-05-02T08:43:36.712Z,20.60
2023-05-02T08:50:48.097Z,21.00
2023-05-02T08:53:51.375Z,21.50
2023-05-02T09:02:46.107Z,22.10
2023-05-02T09:05:10.779Z,22.10
2023-05-02T09:08:00.706Z,21.70
2023-05-02T09:10:50.659Z,21.10
2023-05-02T09:13:41.875Z,21.10
2023-05-02T09:17:30.798Z,20.90
2023-05-02T09:20:29.379Z,20.70
2023-05-02T09:23:41.014Z,20.80
2023-05-02T09:31:43.630Z,20.80
2023-05-02T09:38:08.346Z,21.10
2023-05-02T09:41:06.390Z,21.00
2023-05-02T09:44:43.385Z,21.30
2023-05-02T09:48:09.260Z,21.40
2023-05-02T09:52:15.380Z,21.90
2023-05-02T10:02:53.563Z,22.50
2023-05-02T10:06:40.691Z,22.80
2023-05-02T10:10:21.596Z,23.00
2023-05-02T10:13:11.837Z,22.30
2023-05-02T10:16:03.282Z,22.30
2023-05-02T10:22:35.700Z,22.70
2023-05-02T10:25:27.320Z,22.10
2023-05-02T10:28:39.120Z,21.50
2023-05-02T10:31:35.741Z,21.40
2023-05-02T10:38:02.770Z,20.40
2023-05-02T10:40:58.180Z,19.90
2023-05-02T10:44:30.553Z,20.00
2023-05-02T10:47:22.124Z,20.10
2023-05-02T10:50:12.752Z,19.90
2023-05-02T10:54:47.555Z,20.00
2023-05-02T11:01:45.909Z,19.40
2023-05-02T11:09:34.804Z,19.10
2023-05-02T11:12:53.019Z,18.60
2023-05-02T11:16:05.112Z,18.10
2023-05-02T11:19:07.408Z,18.20
2023-05-02T11:22:36.924Z,18.40
2023-05-02T11:25:44.634Z,18.10
2023-05-02T11:28:51.394Z,17.80
2023-05-02T11:31:59.322Z,17.70
2023-05-02T11:34:56.063Z,17.50
2023-05-02T11:37:56.748Z,17.10
2023-05-02T11:41:01.258Z,16.80
2023-05-02T11:45:01.044Z,16.00
2023-05-02T11:48:19.953Z,15.70
2023-05-02T11:51:25.632Z,15.40
2023-05-02T11:54:46.316Z,15.30
2023-05-02T11:58:04.813Z,15.40
2023-05-02T12:01:33.803Z,15.30
2023-05-02T12:04:28.680Z,15.30
2023-05-02T12:07:19.888Z,15.10
2023-05-02T12:10:11.065Z,15.00
2023-05-02T12:13:07.925Z,15.10
2023-05-02T12:15:59.075Z,15.00
2023-05-02T12:18:49.695Z,15.10
2023-05-02T12:21:39.519Z,15.10
2023-05-02T12:24:30.704Z,15.20
2023-05-02T12:27:20.306Z,15.40
2023-05-02T12:30:11.376Z,15.30
2023-05-02T12:33:01.899Z,15.30
2023-05-02T12:36:07.912Z,15.10
2023-05-02T12:39:00.135Z,15.10
2023-05-02T12:41:52.032Z,15.00
2023-05-02T12:48:25.399Z,15.10
2023-05-02T12:51:33.617Z,14.90
2023-05-02T12:54:23.634Z,15.20
2023-05-02T12:57:25.426Z,15.20
2023-05-02T13:00:18.110Z,15.20
2023-05-02T13:03:08.789Z,15.10
2023-05-02T13:05:58.259Z,15.10
2023-05-02T13:08:47.788Z,15.10
2023-05-02T13:11:37.868Z,15.30
2023-05-02T13:14:29.089Z,15.40
2023-05-02T13:17:19.134Z,16.00
2023-05-02T13:20:11.116Z,16.40
2023-05-02T13:23:00.939Z,17.40
2023-05-02T13:26:21.653Z,18.80
2023-05-02T13:29:13.170Z,19.00
2023-05-02T13:32:05.091Z,19.10
2023-05-02T13:34:57.116Z,18.90
2023-05-02T13:37:47.769Z,18.90
2023-05-02T13:40:41.323Z,19.00
2023-05-02T13:43:31.969Z,19.20
2023-05-02T13:46:54.713Z,18.60
2023-05-02T13:49:48.619Z,18.40
2023-05-02T13:52:39.819Z,18.80
2023-05-02T13:55:34.298Z,18.80
2023-05-02T13:58:32.180Z,19.40
2023-05-02T14:01:22.335Z,19.70
2023-05-02T14:04:16.271Z,20.00
2023-05-02T14:07:24.013Z,19.50
2023-05-02T14:10:15.632Z,18.80
2023-05-02T14:13:39.192Z,19.00
2023-05-02T14:16:45.060Z,20.40
2023-05-02T14:23:54.088Z,20.00
2023-05-02T14:26:45.468Z,20.00
2023-05-02T14:29:41.712Z,19.90
2023-05-02T14:32:35.738Z,19.80
2023-05-02T14:35:29.558Z,19.50
2023-05-02T14:38:25.517Z,19.30
2023-05-02T14:41:17.901Z,19.20
2023-05-02T14:44:07.772Z,19.10
2023-05-02T14:47:03.420Z,18.80
2023-05-02T14:50:00.763Z,19.10
2023-05-02T14:52:51.238Z,18.90
2023-05-02T14:55:41.976Z,18.90
2023-05-02T14:58:37.018Z,18.80
2023-05-02T15:01:40.482Z,18.50
2023-05-02T15:04:41.547Z,18.40
2023-05-02T15:07:43.031Z,18.40
2023-05-02T15:10:55.468Z,18.10
2023-05-02T15:13:54.833Z,18.10
2023-05-02T15:16:51.754Z,18.10
2023-05-02T15:19:43.901Z,18.50
2023-05-02T15:22:34.293Z,18.40
2023-05-02T15:25:25.231Z,18.70
2023-05-02T15:28:21.096Z,18.50
2023-05-02T15:31:12.094Z,18.30
2023-05-02T15:34:07.151Z,18.20
2023-05-02T15:36:58.028Z,18.30
2023-05-02T15:39:47.954Z,18.40
2023-05-02T15:42:38.743Z,18.60
2023-05-02T15:45:28.125Z,18.90
2023-05-02T15:48:21.076Z,18.50
2023-05-02T15:51:11.821Z,18.60
2023-05-02T15:54:02.950Z,18.40
2023-05-02T15:56:53.188Z,18.40
2023-05-02T15:59:46.813Z,18.50
2023-05-02T16:02:38.320Z,18.70
2023-05-02T16:05:31.749Z,18.60
2023-05-02T16:08:23.859Z,18.40
2023-05-02T16:11:14.398Z,18.30
2023-05-02T16:14:05.966Z,18.20
2023-05-02T16:17:02.398Z,18.20
2023-05-02T16:19:54.843Z,18.00
2023-05-02T16:22:50.281Z,17.80
2023-05-02T16:25:53.766Z,17.70
2023-05-02T16:28:46.239Z,17.40
2023-05-02T16:31:35.758Z,17.30
2023-05-02T16:34:25.854Z,17.30
2023-05-02T16:37:16.211Z,17.10
2023-05-02T16:40:08.521Z,17.10
2023-05-02T16:42:58.043Z,17.00
2023-05-02T16:45:47.946Z,16.90
2023-05-02T16:48:37.764Z,17.00
2023-05-02T16:51:27.473Z,16.90
2023-05-02T16:54:16.993Z,16.80
2023-05-02T16:57:11.253Z,16.60
2023-05-02T17:00:34.533Z,16.50
2023-05-02T17:03:24.618Z,16.00
2023-05-02T17:06:14.226Z,15.70
2023-05-02T17:09:08.042Z,15.40
2023-05-02T17:11:58.995Z,15.20
2023-05-02T17:14:50.062Z,15.00
2023-05-02T17:17:39.613Z,14.60
2023-05-02T17:20:29.111Z,14.50
2023-05-02T17:23:19.290Z,14.20
2023-05-02T17:26:15.501Z,14.10
2023-05-02T17:29:05.240Z,13.90
2023-05-02T17:31:57.347Z,13.80
2023-05-02T17:35:02.537Z,13.70
2023-05-02T17:37:52.698Z,13.50
2023-05-02T17:40:42.375Z,13.30
2023-05-02T17:43:32.448Z,13.00
2023-05-02T17:46:23.239Z,12.90
2023-05-02T17:49:15.907Z,12.80
2023-05-02T17:52:06.263Z,12.60
2023-05-02T17:54:57.518Z,12.50
2023-05-02T17:57:48.981Z,12.40
2023-05-02T18:00:39.941Z,12.30
2023-05-02T18:03:31.727Z,12.30
2023-05-02T18:06:23.720Z,12.20
2023-05-02T18:09:16.043Z,12.00
2023-05-02T18:12:07.047Z,12.00
2023-05-02T18:14:57.604Z,11.90
2023-05-02T18:17:49.404Z,11.90
2023-05-02T18:20:43.967Z,11.80
2023-05-02T18:23:36.349Z,11.80
2023-05-02T18:26:27.264Z,11.70
2023-05-02T18:29:20.076Z,11.60
2023-05-02T18:32:11.308Z,11.50
2023-05-02T18:35:05.986Z,11.50
2023-05-02T18:37:57.764Z,11.40
2023-05-02T18:40:49.936Z,11.30
2023-05-02T18:43:40.723Z,11.30
2023-05-02T18:46:31.339Z,11.20
2023-05-02T18:49:23.958Z,11.10
2023-05-02T18:52:14.358Z,11.10
2023-05-02T18:55:08.118Z,11.00
2023-05-02T18:58:04.606Z,11.10
2023-05-02T19:00:55.765Z,11.10
2023-05-02T19:03:50.528Z,11.10
2023-05-02T19:06:42.461Z,11.10
2023-05-02T19:09:33.353Z,11.00
2023-05-02T19:12:24.831Z,11.00
2023-05-02T19:15:17.624Z,10.90
2023-05-02T19:18:08.351Z,10.90
2023-05-02T19:20:59.393Z,10.80
2023-05-02T19:23:54.305Z,10.80
2023-05-02T19:26:49.752Z,10.70
2023-05-02T19:29:42.224Z,10.70
2023-05-02T19:32:38.614Z,10.80
2023-05-02T19:35:34.877Z,10.70
2023-05-02T19:38:27.500Z,10.70
2023-05-02T19:41:18.111Z,10.60
2023-05-02T19:44:10.674Z,10.60
2023-05-02T19:47:03.519Z,10.70
2023-05-02T19:49:54.582Z,10.70
2023-05-02T19:52:47.096Z,10.70
2023-05-02T19:55:39.269Z,10.70
2023-05-02T19:58:31.257Z,10.70
2023-05-02T20:01:22.518Z,10.70
2023-05-02T20:04:14.533Z,10.70
2023-05-02T20:07:07.842Z,10.70
2023-05-02T20:10:00.630Z,10.60
2023-05-02T20:12:51.532Z,10.60
2023-05-02T20:15:42.752Z,10.60
2023-05-02T20:18:33.558Z,10.60
2023-05-02T20:21:24.874Z,10.60
2023-05-02T20:24:17.516Z,10.60
2023-05-02T20:27:09.031Z,10.60
2023-05-02T20:30:01.406Z,10.60
2023-05-02T20:32:54.176Z,10.60
2023-05-02T20:35:45.689Z,10.50
2023-05-02T20:38:38.389Z,10.50
2023-05-02T20:41:32.578Z,10.50
2023-05-02T20:44:23.040Z,10.40
2023-05-02T20:47:13.441Z,10.40
2023-05-02T20:50:04.714Z,10.40
2023-05-02T20:52:57.404Z,10.50
2023-05-02T20:55:50.057Z,10.50
2023-05-02T20:58:43.760Z,10.40
2023-05-02T21:01:33.838Z,10.40
2023-05-02T21:04:23.312Z,10.30
2023-05-02T21:07:14.256Z,10.20
2023-05-02T21:10:04.014Z,10.20
2023-05-02T21:12:53.641Z,10.00
2023-05-02T21:15:44.716Z,9.90
2023-05-02T21:18:34.194Z,9.80
2023-05-02T21:21:24.894Z,9.70
2023-05-02T21:24:14.320Z,9.60
2023-05-02T21:27:04.107Z,9.60
2023-05-02T21:29:53.599Z,9.50
2023-05-02T21:32:44.940Z,9.40
2023-05-02T21:35:34.788Z,9.30
2023-05-02T21:38:24.933Z,9.30
2023-05-02T21:41:14.218Z,9.20
2023-05-02T21:44:04.163Z,9.10
2023-05-02T21:46:53.621Z,9.10
2023-05-02T21:49:46.112Z,9.10
2023-05-02T21:52:35.897Z,9.10
2023-05-02T21:55:25.584Z,9.00
2023-05-02T21:58:15.279Z,9.10
2023-05-02T22:01:05.316Z,9.10
2023-05-02T22:03:54.703Z,9.20
2023-05-02T22:06:50.328Z,9.20
2023-05-02T22:09:40.231Z,9.10
2023-05-02T22:12:30.240Z,9.20
2023-05-02T22:15:19.780Z,9.20
2023-05-02T22:18:10.735Z,9.10
2023-05-02T22:21:02.752Z,9.10
2023-05-02T22:23:53.686Z,9.10
2023-05-02T22:26:44.777Z,9.10
2023-05-02T22:29:34.257Z,9.10
2023-05-02T22:32:39.486Z,9.00
2023-05-02T22:35:40.456Z,8.90
2023-05-02T22:38:33.555Z,8.70
2023-05-02T22:41:24.718Z,8.50
2023-05-02T22:44:14.153Z,8.40
2023-05-02T22:47:05.747Z,8.20
2023-05-02T22:49:59.029Z,8.00
2023-05-02T22:52:49.562Z,7.80
2023-05-02T22:55:40.051Z,7.60
2023-05-02T22:58:30.970Z,7.40
2023-05-02T23:01:21.547Z,7.20
2023-05-02T23:04:11.834Z,7.00
2023-05-02T23:07:01.499Z,6.80
2023-05-02T23:09:50.988Z,6.70
2023-05-02T23:12:40.731Z,6.50
2023-05-02T23:15:31.994Z,6.40
2023-05-02T23:18:21.635Z,6.30
2023-05-02T23:21:17.229Z,6.20
2023-05-02T23:24:06.910Z,6.00
2023-05-02T23:26:56.744Z,5.90
2023-05-02T23:29:46.674Z,5.80
2023-05-02T23:32:38.110Z,5.60
2023-05-02T23:35:27.707Z,5.50
2023-05-02T23:38:17.553Z,5.40
2023-05-02T23:41:07.166Z,5.30
2023-05-02T23:43:56.629Z,5.20
2023-05-02T23:46:46.411Z,5.10
2023-05-02T23:49:39.236Z,5.00
2023-05-02T23:52:28.614Z,4.90
2023-05-02T23:55:21.247Z,4.80
2023-05-02T23:58:11.195Z,4.60
